createdAt,value
2022-12-05T00:05:02.722Z,1420.23745819398
2022-12-05T00:11:31.507Z,1433.8896321070233
2022-12-05T00:17:59.307Z,1426.7290969899666
2022-12-05T00:24:27.441Z,1417.304347826087
2022-12-05T00:33:43.560Z,1448.4347826086957
2022-12-05T00:40:12.142Z,1429.0836120401339
2022-12-05T00:46:41.035Z,1428.38127090301
2022-12-05T00:53:56.134Z,1421.2608695652175
2022-12-05T01:07:03.479Z,1406.4816053511706
2022-12-05T01:13:31.489Z,1413.0869565217392
2022-12-05T01:19:59.579Z,1399.0033444816054
2022-12-05T01:26:27.084Z,1400.1839464882944
2022-12-05T01:32:55.005Z,1359.9397993311036
2022-12-05T01:39:22.735Z,1351.0969899665552
2022-12-05T01:49:38.116Z,1375.0133779264213
2022-12-05T01:57:00.290Z,1354.4882943143812
2022-12-05T02:17:26.028Z,1340.7759197324415
2022-12-05T02:26:09.449Z,1321.5652173913043
2022-12-05T02:32:36.998Z,1336.2608695652175
2022-12-05T02:45:09.256Z,1331.839464882943
2022-12-05T02:51:37.573Z,1325.6688963210702
2022-12-05T03:03:48.565Z,1293.2441471571906
2022-12-05T03:10:19.039Z,1300.4882943143812
2022-12-05T03:16:47.000Z,1301.9933110367892
2022-12-05T03:23:13.917Z,1274.3010033444816
2022-12-05T03:29:41.467Z,1249.2909698996655
2022-12-05T03:38:03.325Z,1226.2943143812709
2022-12-05T03:44:32.141Z,1204.7491638795987
2022-12-05T03:51:00.030Z,1206.839464882943
2022-12-05T03:58:15.730Z,1192.2709030100334
2022-12-05T04:04:43.602Z,1170.4180602006688
2022-12-05T04:11:10.814Z,1165.9565217391305
2022-12-05T04:17:38.780Z,1141.6889632107022
2022-12-05T04:24:06.101Z,1115.628762541806
2022-12-05T04:30:34.835Z,1078.732441471572
2022-12-05T04:37:02.690Z,1056.1471571906354
2022-12-05T04:43:30.162Z,1097.056856187291
2022-12-05T04:49:57.903Z,1078.2909698996655
2022-12-05T04:56:25.996Z,1065.448160535117
2022-12-05T05:02:53.911Z,1024.200668896321
2022-12-05T05:09:21.281Z,1033.314381270903
2022-12-05T05:20:42.113Z,1009.8026755852843
2022-12-05T05:27:09.566Z,995.6989966555184
2022-12-05T05:33:36.424Z,1008.1739130434783
2022-12-05T05:40:07.762Z,1005.2374581939799
2022-12-05T05:50:57.687Z,973.6555183946489
2022-12-05T05:57:25.104Z,959.8829431438127
2022-12-05T06:03:53.574Z,939.4715719063545
2022-12-05T06:10:21.349Z,965.5785953177258
2022-12-05T06:22:35.699Z,976.9096989966555
2022-12-05T06:40:11.473Z,948.3645484949833
2022-12-05T06:46:38.854Z,964.4615384615385
2022-12-05T07:04:43.374Z,950.8026755852843
2022-12-05T07:11:11.310Z,926.180602006689
2022-12-05T07:17:40.217Z,946.3779264214047
2022-12-05T07:24:08.581Z,907.9933110367894
2022-12-05T07:32:33.763Z,883.0602006688963
2022-12-05T07:51:46.257Z,819.4849498327759
2022-12-05T07:58:14.588Z,818.8026755852843
2022-12-05T08:04:41.946Z,760.4414715719064
2022-12-05T08:12:13.475Z,767.9565217391304
2022-12-05T08:18:40.581Z,760.581939799331
2022-12-05T08:25:08.302Z,770.0033444816054
2022-12-05T08:31:36.213Z,739.4347826086956
2022-12-05T08:43:21.623Z,768.2374581939799
2022-12-05T08:49:49.735Z,736.6488294314381
2022-12-05T08:59:09.510Z,715.2909698996656
2022-12-05T09:05:37.453Z,708.742474916388
2022-12-05T09:12:07.420Z,757.5183946488295
2022-12-05T09:27:05.880Z,674.0434782608696
2022-12-05T09:33:33.845Z,665.4949832775919
2022-12-05T09:44:46.779Z,637.428093645485
2022-12-05T09:54:46.179Z,614.9197324414715
2022-12-05T10:08:02.434Z,506.59197324414714
2022-12-05T10:14:30.118Z,502.75250836120404
2022-12-05T10:26:37.071Z,544.4983277591973
2022-12-05T10:33:09.395Z,566.7759197324415
2022-12-05T10:39:37.105Z,555.5752508361204
2022-12-05T10:51:18.958Z,644.3545150501673
2022-12-05T10:58:01.981Z,745.2240802675585
2022-12-05T11:04:49.012Z,651.0836120401337
2022-12-05T11:11:16.123Z,607.3545150501673
2022-12-05T11:17:43.905Z,601.8227424749164
2022-12-05T11:24:11.204Z,625.2441471571906
2022-12-05T11:30:39.117Z,668.7625418060201
2022-12-05T11:37:07.235Z,665.5351170568562
2022-12-05T11:52:41.299Z,691.7826086956521
2022-12-05T11:59:08.115Z,685.6321070234113
2022-12-05T12:06:52.138Z,696.8929765886288
2022-12-05T12:19:57.476Z,761.8060200668897
2022-12-05T12:26:24.170Z,747.8394648829432
2022-12-05T12:55:42.899Z,700.1538461538462
2022-12-05T13:02:11.042Z,711.304347826087
2022-12-05T13:12:40.000Z,699.561872909699
2022-12-05T13:27:15.631Z,725.1739130434783
2022-12-05T13:33:43.604Z,646.2909698996656
2022-12-05T13:40:11.070Z,659.4648829431438
2022-12-05T13:46:38.977Z,644.7056856187291
2022-12-05T13:53:06.547Z,609.4715719063545
2022-12-05T13:59:34.348Z,625.6588628762541
2022-12-05T14:06:02.161Z,606.1973244147157
2022-12-05T14:12:30.175Z,600.0334448160535
2022-12-05T14:18:58.140Z,646.0200668896321
2022-12-05T14:34:16.264Z,638.371237458194
2022-12-05T14:40:44.430Z,613.1939799331103
2022-12-05T14:47:20.998Z,638.3913043478261
2022-12-05T14:53:48.048Z,646.3879598662207
2022-12-05T15:00:15.343Z,677.7157190635452
2022-12-05T15:06:42.622Z,671.4314381270902
2022-12-05T15:13:09.827Z,686.6889632107024
2022-12-05T15:22:37.494Z,669.7959866220735
2022-12-05T15:35:54.139Z,758.9096989966555
2022-12-05T15:42:24.746Z,677.6454849498327
2022-12-05T15:48:55.890Z,638.0969899665552
2022-12-05T15:55:21.948Z,536.9197324414715
2022-12-05T16:07:49.574Z,563.8127090301003
2022-12-05T16:19:28.809Z,587.6822742474916
2022-12-05T16:28:05.505Z,568.5050167224081
2022-12-05T16:34:32.767Z,575.7591973244147
2022-12-05T16:42:44.862Z,605.9464882943143
2022-12-05T16:49:11.637Z,587.247491638796
2022-12-05T16:58:55.545Z,545.3578595317725
2022-12-05T17:05:23.150Z,582.3277591973244
2022-12-05T17:15:44.490Z,625.4581939799331
2022-12-05T17:22:12.454Z,669.3511705685619
2022-12-05T17:28:41.075Z,722.9866220735786
2022-12-05T17:35:09.115Z,795.5384615384615
2022-12-05T17:41:37.587Z,866.4414715719064
2022-12-05T17:52:21.107Z,895.2408026755853
2022-12-05T17:58:48.704Z,821.3578595317725
2022-12-05T18:05:16.000Z,783.6923076923077
2022-12-05T18:11:43.323Z,906.5451505016722
2022-12-05T18:20:23.272Z,1066.979933110368
2022-12-05T18:26:50.968Z,887.4247491638796
2022-12-05T18:33:18.414Z,790.2207357859531
2022-12-05T18:43:08.265Z,767.7056856187291
2022-12-05T18:53:03.680Z,1614.0334448160536
2022-12-05T19:05:29.953Z,688.6421404682275
2022-12-05T19:11:57.510Z,635.8963210702341
2022-12-05T19:18:27.763Z,668.7224080267558
2022-12-05T19:26:31.413Z,708.7023411371238
2022-12-05T19:33:07.097Z,1158.200668896321
2022-12-05T19:39:50.662Z,1638.0401337792641
2022-12-05T19:46:23.939Z,856.3010033444816
2022-12-05T19:57:19.525Z,1584.0234113712374
2022-12-05T20:08:58.148Z,1939.5652173913043
2022-12-05T20:15:26.218Z,1425.7591973244148
2022-12-05T20:21:53.986Z,936.7090301003344
2022-12-05T20:28:58.817Z,800.7959866220735
2022-12-05T20:35:44.066Z,723.0
2022-12-05T20:42:18.724Z,777.2240802675585
2022-12-05T20:49:02.023Z,802.9297658862877
2022-12-05T20:55:38.434Z,808.2809364548496
2022-12-05T21:04:32.856Z,774.7023411371238
2022-12-05T21:10:59.307Z,789.5351170568562
2022-12-05T21:17:31.092Z,758.2809364548496
2022-12-05T21:23:59.204Z,789.5183946488295
2022-12-05T21:30:26.656Z,775.8528428093646
2022-12-05T21:36:54.796Z,789.886287625418
2022-12-05T21:45:52.864Z,758.180602006689
2022-12-05T21:54:42.301Z,718.9063545150501
2022-12-05T22:01:09.513Z,719.3578595317725
2022-12-05T22:07:36.518Z,752.9799331103679
2022-12-05T22:14:03.286Z,785.9632107023411
2022-12-05T22:20:30.813Z,810.9732441471572
2022-12-05T22:26:58.549Z,813.8628762541806
2022-12-05T22:34:22.330Z,829.5050167224081
2022-12-05T22:40:49.917Z,844.5384615384615
2022-12-05T22:47:17.091Z,831.5083612040133
2022-12-05T22:57:50.751Z,829.551839464883
2022-12-05T23:13:38.182Z,810.4113712374582
2022-12-05T23:20:05.896Z,775.8929765886288
2022-12-05T23:26:33.267Z,738.5886287625418
2022-12-05T23:33:01.236Z,722.8528428093646
2022-12-05T23:39:29.633Z,700.0535117056857
2022-12-05T23:59:00.408Z,704.6488294314381
